sensor_id;sensor_type;location;lat;lon;timestamp;pressure;altitude;pressure_sealevel;temperature;humidity
68193;BME280;55012;47.562;18.414;2022-11-15T00:01:55;100263.09;;;6.67;100.00
68193;BME280;55012;47.562;18.414;2022-11-15T00:04:20;100262.00;;;6.68;100.00
68193;BME280;55012;47.562;18.414;2022-11-15T00:06:46;100263.34;;;6.71;100.00
68193;BME280;55012;47.562;18.414;2022-11-15T00:09:11;100259.84;;;6.70;100.00
68193;BME280;55012;47.562;18.414;2022-11-15T00:11:37;100254.47;;;6.70;100.00
68193;BME280;55012;47.562;18.414;2022-11-15T00:14:02;100251.25;;;6.68;100.00
68193;BME280;55012;47.562;18.414;2022-11-15T00:16:28;100238.91;;;6.67;100.00
68193;BME280;55012;47.562;18.414;2022-11-15T00:18:53;100250.25;;;6.64;100.00
68193;BME280;55012;47.562;18.414;2022-11-15T00:21:19;100235.72;;;6.65;100.00
68193;BME280;55012;47.562;18.414;2022-11-15T00:23:44;100240.81;;;6.67;100.00
68193;BME280;55012;47.562;18.414;2022-11-15T00:26:14;100237.50;;;6.70;100.00
68193;BME280;55012;47.562;18.414;2022-11-15T00:28:41;100231.06;;;6.71;100.00
68193;BME280;55012;47.562;18.414;2022-11-15T00:31:10;100225.69;;;6.71;100.00
68193;BME280;55012;47.562;18.414;2022-11-15T00:33:36;100226.56;;;6.66;100.00
68193;BME280;55012;47.562;18.414;2022-11-15T00:36:08;100221.00;;;6.63;100.00
68193;BME280;55012;47.562;18.414;2022-11-15T00:38:36;100218.31;;;6.63;100.00
68193;BME280;55012;47.562;18.414;2022-11-15T00:41:03;100220.69;;;6.64;100.00
68193;BME280;55012;47.562;18.414;2022-11-15T00:43:29;100229.84;;;6.63;100.00
68193;BME280;55012;47.562;18.414;2022-11-15T00:45:55;100216.41;;;6.63;100.00
68193;BME280;55012;47.562;18.414;2022-11-15T00:48:20;100221.25;;;6.61;100.00
68193;BME280;55012;47.562;18.414;2022-11-15T00:50:46;100227.16;;;6.63;100.00
68193;BME280;55012;47.562;18.414;2022-11-15T00:53:12;100222.88;;;6.62;100.00
68193;BME280;55012;47.562;18.414;2022-11-15T00:55:37;100221.25;;;6.61;100.00
68193;BME280;55012;47.562;18.414;2022-11-15T00:58:03;100214.59;;;6.59;100.00
68193;BME280;55012;47.562;18.414;2022-11-15T01:00:28;100208.72;;;6.57;100.00
68193;BME280;55012;47.562;18.414;2022-11-15T01:02:54;100209.00;;;6.55;100.00
68193;BME280;55012;47.562;18.414;2022-11-15T01:05:19;100207.69;;;6.53;100.00
68193;BME280;55012;47.562;18.414;2022-11-15T01:07:45;100197.25;;;6.51;100.00
68193;BME280;55012;47.562;18.414;2022-11-15T01:10:11;100200.22;;;6.50;100.00
68193;BME280;55012;47.562;18.414;2022-11-15T01:12:37;100197.03;;;6.47;100.00
68193;BME280;55012;47.562;18.414;2022-11-15T01:15:03;100199.72;;;6.47;100.00
68193;BME280;55012;47.562;18.414;2022-11-15T01:17:30;100198.13;;;6.46;100.00
68193;BME280;55012;47.562;18.414;2022-11-15T01:19:55;100199.22;;;6.45;100.00
68193;BME280;55012;47.562;18.414;2022-11-15T01:22:21;100190.94;;;6.42;100.00
68193;BME280;55012;47.562;18.414;2022-11-15T01:24:46;100194.22;;;6.39;100.00
68193;BME280;55012;47.562;18.414;2022-11-15T01:27:12;100194.53;;;6.37;100.00
68193;BME280;55012;47.562;18.414;2022-11-15T01:29:37;100192.09;;;6.36;100.00
68193;BME280;55012;47.562;18.414;2022-11-15T01:32:03;100189.41;;;6.36;100.00
68193;BME280;55012;47.562;18.414;2022-11-15T01:34:28;100187.03;;;6.34;100.00
68193;BME280;55012;47.562;18.414;2022-11-15T01:36:54;100187.03;;;6.34;100.00
68193;BME280;55012;47.562;18.414;2022-11-15T01:39:19;100189.41;;;6.36;100.00
68193;BME280;55012;47.562;18.414;2022-11-15T01:41:45;100185.38;;;6.38;100.00
68193;BME280;55012;47.562;18.414;2022-11-15T01:44:50;100183.97;;;6.41;100.00
68193;BME280;55012;47.562;18.414;2022-11-15T01:47:31;100184.16;;;6.44;100.00
68193;BME280;55012;47.562;18.414;2022-11-15T01:50:12;100183.78;;;6.51;100.00
68193;BME280;55012;47.562;18.414;2022-11-15T01:52:39;100178.06;;;6.58;100.00
68193;BME280;55012;47.562;18.414;2022-11-15T01:55:24;100169.59;;;6.64;100.00
68193;BME280;55012;47.562;18.414;2022-11-15T01:57:53;100174.88;;;6.69;100.00
68193;BME280;55012;47.562;18.414;2022-11-15T02:00:20;100164.66;;;6.71;100.00
68193;BME280;55012;47.562;18.414;2022-11-15T02:02:46;100159.84;;;6.68;100.00
68193;BME280;55012;47.562;18.414;2022-11-15T02:05:12;100153.47;;;6.64;100.00
68193;BME280;55012;47.562;18.414;2022-11-15T02:07:38;100150.06;;;6.59;100.00
68193;BME280;55012;47.562;18.414;2022-11-15T02:10:12;100153.94;;;6.53;100.00
68193;BME280;55012;47.562;18.414;2022-11-15T02:12:38;100144.16;;;6.43;100.00
68193;BME280;55012;47.562;18.414;2022-11-15T02:15:05;100140.78;;;6.37;100.00
68193;BME280;55012;47.562;18.414;2022-11-15T02:21:05;100140.72;;;6.24;100.00
68193;BME280;55012;47.562;18.414;2022-11-15T02:24:09;100142.19;;;6.16;100.00
68193;BME280;55012;47.562;18.414;2022-11-15T02:32:18;100142.13;;;6.02;100.00
68193;BME280;55012;47.562;18.414;2022-11-15T02:35:02;100143.22;;;6.01;100.00
68193;BME280;55012;47.562;18.414;2022-11-15T02:37:39;100141.63;;;6.00;100.00
68193;BME280;55012;47.562;18.414;2022-11-15T02:42:53;100141.25;;;6.07;100.00
68193;BME280;55012;47.562;18.414;2022-11-15T02:45:44;100143.03;;;6.11;100.00
68193;BME280;55012;47.562;18.414;2022-11-15T02:48:12;100143.56;;;6.13;100.00
68193;BME280;55012;47.562;18.414;2022-11-15T02:50:38;100146.66;;;6.20;100.00
68193;BME280;55012;47.562;18.414;2022-11-15T02:53:03;100148.41;;;6.30;100.00
68193;BME280;55012;47.562;18.414;2022-11-15T02:55:38;100136.19;;;6.38;100.00
68193;BME280;55012;47.562;18.414;2022-11-15T03:04:12;100139.63;;;6.57;100.00
68193;BME280;55012;47.562;18.414;2022-11-15T03:11:38;100125.63;;;6.41;100.00
68193;BME280;55012;47.562;18.414;2022-11-15T03:14:23;100130.03;;;6.37;100.00
68193;BME280;55012;47.562;18.414;2022-11-15T03:19:44;100115.88;;;6.32;100.00
68193;BME280;55012;47.562;18.414;2022-11-15T03:22:17;100113.66;;;6.34;100.00
68193;BME280;55012;47.562;18.414;2022-11-15T03:24:45;100124.44;;;6.34;100.00
68193;BME280;55012;47.562;18.414;2022-11-15T03:27:15;100120.75;;;6.30;100.00
68193;BME280;55012;47.562;18.414;2022-11-15T03:29:47;100108.97;;;6.26;100.00
68193;BME280;55012;47.562;18.414;2022-11-15T03:32:20;100109.88;;;6.21;100.00
68193;BME280;55012;47.562;18.414;2022-11-15T03:35:12;100105.28;;;6.22;100.00
68193;BME280;55012;47.562;18.414;2022-11-15T03:37:59;100108.47;;;6.24;100.00
68193;BME280;55012;47.562;18.414;2022-11-15T03:40:33;100098.53;;;6.24;100.00
68193;BME280;55012;47.562;18.414;2022-11-15T03:45:45;100092.34;;;6.24;100.00
68193;BME280;55012;47.562;18.414;2022-11-15T03:48:17;100090.84;;;6.17;100.00
68193;BME280;55012;47.562;18.414;2022-11-15T03:50:45;100089.84;;;6.13;100.00
68193;BME280;55012;47.562;18.414;2022-11-15T03:53:12;100092.91;;;6.07;100.00
68193;BME280;55012;47.562;18.414;2022-11-15T03:55:37;100088.41;;;6.02;100.00
68193;BME280;55012;47.562;18.414;2022-11-15T03:58:03;100090.88;;;5.99;100.00
68193;BME280;55012;47.562;18.414;2022-11-15T04:00:28;100082.84;;;5.99;100.00
68193;BME280;55012;47.562;18.414;2022-11-15T04:02:54;100085.50;;;5.99;100.00
68193;BME280;55012;47.562;18.414;2022-11-15T04:05:20;100076.97;;;5.97;100.00
68193;BME280;55012;47.562;18.414;2022-11-15T04:07:45;100069.69;;;5.97;100.00
68193;BME280;55012;47.562;18.414;2022-11-15T04:10:12;100066.41;;;6.00;100.00
68193;BME280;55012;47.562;18.414;2022-11-15T04:12:40;100059.88;;;6.06;100.00
68193;BME280;55012;47.562;18.414;2022-11-15T04:15:12;100068.06;;;6.15;100.00
68193;BME280;55012;47.562;18.414;2022-11-15T04:17:44;100063.91;;;6.23;100.00
68193;BME280;55012;47.562;18.414;2022-11-15T04:20:17;100069.97;;;6.28;100.00
68193;BME280;55012;47.562;18.414;2022-11-15T04:23:04;100071.28;;;6.31;100.00
68193;BME280;55012;47.562;18.414;2022-11-15T04:25:51;100072.38;;;6.30;100.00
68193;BME280;55012;47.562;18.414;2022-11-15T04:28:17;100063.22;;;6.31;100.00
68193;BME280;55012;47.562;18.414;2022-11-15T04:30:42;100075.56;;;6.32;100.00
68193;BME280;55012;47.562;18.414;2022-11-15T04:33:08;100076.34;;;6.32;100.00
68193;BME280;55012;47.562;18.414;2022-11-15T04:35:33;100081.50;;;6.29;100.00
68193;BME280;55012;47.562;18.414;2022-11-15T04:38:00;100085.41;;;6.23;100.00
68193;BME280;55012;47.562;18.414;2022-11-15T04:40:25;100085.16;;;6.19;100.00
68193;BME280;55012;47.562;18.414;2022-11-15T04:42:51;100085.97;;;6.19;100.00
68193;BME280;55012;47.562;18.414;2022-11-15T04:45:17;100092.06;;;6.25;100.00
68193;BME280;55012;47.562;18.414;2022-11-15T04:47:45;100081.50;;;6.29;100.00
68193;BME280;55012;47.562;18.414;2022-11-15T04:50:12;100084.03;;;6.39;100.00
68193;BME280;55012;47.562;18.414;2022-11-15T04:52:40;100069.19;;;6.41;100.00
68193;BME280;55012;47.562;18.414;2022-11-15T04:55:07;100081.75;;;6.46;100.00
68193;BME280;55012;47.562;18.414;2022-11-15T04:57:33;100080.97;;;6.45;100.00
68193;BME280;55012;47.562;18.414;2022-11-15T04:59:58;100073.41;;;6.47;100.00
68193;BME280;55012;47.562;18.414;2022-11-15T05:02:23;100069.31;;;6.50;100.00
68193;BME280;55012;47.562;18.414;2022-11-15T05:04:49;100067.91;;;6.53;100.00
68193;BME280;55012;47.562;18.414;2022-11-15T05:07:14;100066.31;;;6.52;100.00
68193;BME280;55012;47.562;18.414;2022-11-15T05:09:40;100051.78;;;6.53;100.00
68193;BME280;55012;47.562;18.414;2022-11-15T05:12:05;100059.06;;;6.52;100.00
68193;BME280;55012;47.562;18.414;2022-11-15T05:14:31;100054.38;;;6.58;100.00
68193;BME280;55012;47.562;18.414;2022-11-15T05:16:56;100044.91;;;6.60;100.00
68193;BME280;55012;47.562;18.414;2022-11-15T05:19:22;100047.13;;;6.58;100.00
68193;BME280;55012;47.562;18.414;2022-11-15T05:21:47;100044.72;;;6.57;100.00
68193;BME280;55012;47.562;18.414;2022-11-15T05:24:13;100043.94;;;6.56;100.00
68193;BME280;55012;47.562;18.414;2022-11-15T05:26:38;100042.53;;;6.59;100.00
68193;BME280;55012;47.562;18.414;2022-11-15T05:29:04;100044.63;;;6.62;100.00
68193;BME280;55012;47.562;18.414;2022-11-15T05:31:29;100046.41;;;6.66;100.00
68193;BME280;55012;47.562;18.414;2022-11-15T05:33:56;100043.13;;;6.69;100.00
68193;BME280;55012;47.562;18.414;2022-11-15T05:36:33;100045.25;;;6.72;100.00
68193;BME280;55012;47.562;18.414;2022-11-15T05:39:01;100037.34;;;6.76;100.00
68193;BME280;55012;47.562;18.414;2022-11-15T05:41:38;100038.06;;;6.82;100.00
68193;BME280;55012;47.562;18.414;2022-11-15T05:44:07;100033.66;;;6.86;100.00
68193;BME280;55012;47.562;18.414;2022-11-15T05:46:35;100040.63;;;6.87;100.00
68193;BME280;55012;47.562;18.414;2022-11-15T05:49:04;100043.03;;;6.88;100.00
68193;BME280;55012;47.562;18.414;2022-11-15T05:51:31;100041.16;;;6.89;100.00
68193;BME280;55012;47.562;18.414;2022-11-15T05:53:58;100030.69;;;6.87;100.00
68193;BME280;55012;47.562;18.414;2022-11-15T05:56:25;100034.19;;;6.88;100.00
68193;BME280;55012;47.562;18.414;2022-11-15T05:58:53;100030.38;;;6.89;100.00
68193;BME280;55012;47.562;18.414;2022-11-15T06:01:19;100032.47;;;6.92;100.00
68193;BME280;55012;47.562;18.414;2022-11-15T06:03:44;100028.88;;;6.96;100.00
68193;BME280;55012;47.562;18.414;2022-11-15T06:06:10;100024.19;;;7.02;100.00
68193;BME280;55012;47.562;18.414;2022-11-15T06:08:35;100027.06;;;7.06;100.00
68193;BME280;55012;47.562;18.414;2022-11-15T06:11:05;100036.44;;;7.08;100.00
68193;BME280;55012;47.562;18.414;2022-11-15T06:13:31;100039.59;;;7.10;100.00
68193;BME280;55012;47.562;18.414;2022-11-15T06:15:57;100042.03;;;7.12;100.00
68193;BME280;55012;47.562;18.414;2022-11-15T06:18:23;100050.28;;;7.15;100.00
68193;BME280;55012;47.562;18.414;2022-11-15T06:20:48;100046.16;;;7.18;100.00
68193;BME280;55012;47.562;18.414;2022-11-15T06:23:14;100038.09;;;7.18;100.00
68193;BME280;55012;47.562;18.414;2022-11-15T06:25:39;100023.53;;;7.19;100.00
68193;BME280;55012;47.562;18.414;2022-11-15T06:28:05;100027.53;;;7.21;100.00
68193;BME280;55012;47.562;18.414;2022-11-15T06:30:30;100023.13;;;7.25;100.00
68193;BME280;55012;47.562;18.414;2022-11-15T06:33:00;100019.03;;;7.28;100.00
68193;BME280;55012;47.562;18.414;2022-11-15T06:35:27;100021.63;;;7.33;100.00
68193;BME280;55012;47.562;18.414;2022-11-15T06:37:53;100025.09;;;7.33;100.00
68193;BME280;55012;47.562;18.414;2022-11-15T06:40:18;100022.41;;;7.33;100.00
68193;BME280;55012;47.562;18.414;2022-11-15T06:42:43;100027.22;;;7.37;100.00
68193;BME280;55012;47.562;18.414;2022-11-15T06:45:09;100022.31;;;7.39;100.00
68193;BME280;55012;47.562;18.414;2022-11-15T06:47:35;100019.47;;;7.44;100.00
68193;BME280;55012;47.562;18.414;2022-11-15T06:50:00;100009.88;;;7.51;100.00
68193;BME280;55012;47.562;18.414;2022-11-15T06:52:26;100012.16;;;7.58;100.00
68193;BME280;55012;47.562;18.414;2022-11-15T06:54:51;100010.94;;;7.64;100.00
68193;BME280;55012;47.562;18.414;2022-11-15T06:57:16;100000.34;;;7.68;100.00
68193;BME280;55012;47.562;18.414;2022-11-15T06:59:42;99998.75;;;7.67;100.00
68193;BME280;55012;47.562;18.414;2022-11-15T07:02:14;100008.72;;;7.66;100.00
68193;BME280;55012;47.562;18.414;2022-11-15T07:04:39;100004.28;;;7.62;100.00
68193;BME280;55012;47.562;18.414;2022-11-15T07:07:05;100007.88;;;7.57;100.00
68193;BME280;55012;47.562;18.414;2022-11-15T07:09:30;100004.31;;;7.48;100.00
68193;BME280;55012;47.562;18.414;2022-11-15T07:11:56;100008.38;;;7.37;100.00
68193;BME280;55012;47.562;18.414;2022-11-15T07:14:21;100015.06;;;7.25;100.00
68193;BME280;55012;47.562;18.414;2022-11-15T07:16:47;100010.81;;;7.11;100.00
68193;BME280;55012;47.562;18.414;2022-11-15T07:19:12;100016.41;;;7.00;100.00
68193;BME280;55012;47.562;18.414;2022-11-15T07:21:38;100019.09;;;7.00;100.00
68193;BME280;55012;47.562;18.414;2022-11-15T07:24:04;100016.63;;;7.04;100.00
68193;BME280;55012;47.562;18.414;2022-11-15T07:26:29;100025.06;;;7.11;100.00
68193;BME280;55012;47.562;18.414;2022-11-15T07:28:55;100018.28;;;7.14;100.00
68193;BME280;55012;47.562;18.414;2022-11-15T07:31:20;100015.28;;;7.15;100.00
68193;BME280;55012;47.562;18.414;2022-11-15T07:33:46;100023.75;;;7.22;100.00
68193;BME280;55012;47.562;18.414;2022-11-15T07:36:11;100026.03;;;7.29;100.00
68193;BME280;55012;47.562;18.414;2022-11-15T07:38:37;100023.22;;;7.34;100.00
68193;BME280;55012;47.562;18.414;2022-11-15T07:41:04;100010.84;;;7.33;100.00
68193;BME280;55012;47.562;18.414;2022-11-15T07:43:30;100013.63;;;7.42;100.00
68193;BME280;55012;47.562;18.414;2022-11-15T07:45:57;100014.63;;;7.46;100.00
68193;BME280;55012;47.562;18.414;2022-11-15T07:48:23;100021.69;;;7.42;100.00
68193;BME280;55012;47.562;18.414;2022-11-15T07:50:49;100020.41;;;7.39;100.00
68193;BME280;55012;47.562;18.414;2022-11-15T07:53:14;100016.72;;;7.35;100.00
68193;BME280;55012;47.562;18.414;2022-11-15T07:55:41;100017.25;;;7.37;100.00
68193;BME280;55012;47.562;18.414;2022-11-15T07:58:11;100022.19;;;7.44;100.00
68193;BME280;55012;47.562;18.414;2022-11-15T08:00:37;100020.47;;;7.48;100.00
68193;BME280;55012;47.562;18.414;2022-11-15T08:05:28;100012.78;;;7.55;100.00
68193;BME280;55012;47.562;18.414;2022-11-15T08:07:57;100018.81;;;7.60;100.00
68193;BME280;55012;47.562;18.414;2022-11-15T08:10:23;100004.63;;;7.69;100.00
68193;BME280;55012;47.562;18.414;2022-11-15T08:13:03;100002.97;;;7.81;100.00
68193;BME280;55012;47.562;18.414;2022-11-15T08:15:29;100000.66;;;7.88;100.00
68193;BME280;55012;47.562;18.414;2022-11-15T08:18:01;100001.28;;;7.94;100.00
68193;BME280;55012;47.562;18.414;2022-11-15T08:20:28;100001.00;;;7.96;100.00
68193;BME280;55012;47.562;18.414;2022-11-15T08:22:58;99996.22;;;7.93;100.00
68193;BME280;55012;47.562;18.414;2022-11-15T08:25:25;99980.22;;;7.87;100.00
68193;BME280;55012;47.562;18.414;2022-11-15T08:27:56;99980.75;;;7.76;100.00
68193;BME280;55012;47.562;18.414;2022-11-15T08:30:22;99968.03;;;7.68;100.00
68193;BME280;55012;47.562;18.414;2022-11-15T08:32:50;99966.28;;;7.63;100.00
68193;BME280;55012;47.562;18.414;2022-11-15T08:35:15;99974.53;;;7.67;100.00
68193;BME280;55012;47.562;18.414;2022-11-15T08:37:41;99979.97;;;7.75;100.00
68193;BME280;55012;47.562;18.414;2022-11-15T08:40:07;99965.94;;;7.87;100.00
68193;BME280;55012;47.562;18.414;2022-11-15T08:42:33;99974.75;;;8.10;100.00
68193;BME280;55012;47.562;18.414;2022-11-15T08:44:58;99967.09;;;8.34;100.00
68193;BME280;55012;47.562;18.414;2022-11-15T08:47:25;99969.88;;;8.52;100.00
68193;BME280;55012;47.562;18.414;2022-11-15T08:49:51;99970.41;;;8.62;100.00
68193;BME280;55012;47.562;18.414;2022-11-15T08:52:17;99977.09;;;8.73;100.00
68193;BME280;55012;47.562;18.414;2022-11-15T08:54:42;99972.81;;;8.81;100.00
68193;BME280;55012;47.562;18.414;2022-11-15T08:57:07;99981.72;;;8.90;100.00
68193;BME280;55012;47.562;18.414;2022-11-15T08:59:35;99969.97;;;8.86;100.00
68193;BME280;55012;47.562;18.414;2022-11-15T09:02:01;99966.63;;;8.81;100.00
68193;BME280;55012;47.562;18.414;2022-11-15T09:04:26;99964.84;;;8.76;100.00
68193;BME280;55012;47.562;18.414;2022-11-15T09:06:52;99963.59;;;8.82;100.00
68193;BME280;55012;47.562;18.414;2022-11-15T09:09:17;99959.81;;;9.00;100.00
68193;BME280;55012;47.562;18.414;2022-11-15T09:11:43;99964.94;;;9.28;100.00
68193;BME280;55012;47.562;18.414;2022-11-15T09:14:11;99953.13;;;9.50;100.00
68193;BME280;55012;47.562;18.414;2022-11-15T09:16:37;99946.16;;;9.49;100.00
68193;BME280;55012;47.562;18.414;2022-11-15T09:19:02;99942.19;;;9.46;100.00
68193;BME280;55012;47.562;18.414;2022-11-15T09:21:29;99937.91;;;9.37;100.00
68193;BME280;55012;47.562;18.414;2022-11-15T09:23:54;99929.03;;;9.19;100.00
68193;BME280;55012;47.562;18.414;2022-11-15T09:26:20;99935.25;;;9.19;100.00
68193;BME280;55012;47.562;18.414;2022-11-15T09:28:45;99921.88;;;9.14;100.00
68193;BME280;55012;47.562;18.414;2022-11-15T09:31:11;99925.38;;;9.06;100.00
68193;BME280;55012;47.562;18.414;2022-11-15T09:33:36;99919.50;;;9.04;100.00
68193;BME280;55012;47.562;18.414;2022-11-15T09:36:04;99909.03;;;9.03;100.00
68193;BME280;55012;47.562;18.414;2022-11-15T09:38:31;99902.03;;;9.01;100.00
68193;BME280;55012;47.562;18.414;2022-11-15T09:48:51;99907.91;;;9.38;100.00
68193;BME280;55012;47.562;18.414;2022-11-15T09:51:36;99904.50;;;9.58;100.00
68193;BME280;55012;47.562;18.414;2022-11-15T09:56:41;99887.94;;;9.77;100.00
68193;BME280;55012;47.562;18.414;2022-11-15T10:04:43;99875.28;;;9.99;100.00
68193;BME280;55012;47.562;18.414;2022-11-15T10:07:27;99872.81;;;9.85;100.00
68193;BME280;55012;47.562;18.414;2022-11-15T10:10:04;99887.75;;;9.82;100.00
68193;BME280;55012;47.562;18.414;2022-11-15T10:12:34;99893.66;;;9.76;100.00
68193;BME280;55012;47.562;18.414;2022-11-15T10:15:05;99868.09;;;9.65;100.00
68193;BME280;55012;47.562;18.414;2022-11-15T10:20:29;99869.97;;;9.09;100.00
68193;BME280;55012;47.562;18.414;2022-11-15T10:23:00;99860.63;;;8.97;100.00
68193;BME280;55012;47.562;18.414;2022-11-15T10:25:31;99847.47;;;8.79;100.00
68193;BME280;55012;47.562;18.414;2022-11-15T10:30:40;99830.75;;;8.51;100.00
68193;BME280;55012;47.562;18.414;2022-11-15T10:33:34;99830.16;;;8.45;100.00
68193;BME280;55012;47.562;18.414;2022-11-15T10:43:44;99825.06;;;8.52;100.00
68193;BME280;55012;47.562;18.414;2022-11-15T10:46:21;99827.47;;;8.62;100.00
68193;BME280;55012;47.562;18.414;2022-11-15T10:48:47;99819.50;;;8.75;100.00
68193;BME280;55012;47.562;18.414;2022-11-15T10:51:24;99805.56;;;8.81;100.00
68193;BME280;55012;47.562;18.414;2022-11-15T10:53:54;99801.91;;;8.86;100.00
68193;BME280;55012;47.562;18.414;2022-11-15T10:56:22;99789.38;;;8.72;100.00
68193;BME280;55012;47.562;18.414;2022-11-15T10:58:57;99784.47;;;8.57;100.00
68193;BME280;55012;47.562;18.414;2022-11-15T11:01:25;99786.84;;;8.50;100.00
68193;BME280;55012;47.562;18.414;2022-11-15T11:04:06;99789.72;;;8.54;100.00
68193;BME280;55012;47.562;18.414;2022-11-15T11:06:46;99829.38;;;8.62;100.00
68193;BME280;55012;47.562;18.414;2022-11-15T11:11:54;99841.88;;;8.75;100.00
68193;BME280;55012;47.562;18.414;2022-11-15T11:14:29;99839.03;;;8.71;100.00
68193;BME280;55012;47.562;18.414;2022-11-15T11:20:18;99829.97;;;8.76;100.00
68193;BME280;55012;47.562;18.414;2022-11-15T11:25:39;99819.19;;;8.93;100.00
68193;BME280;55012;47.562;18.414;2022-11-15T11:34:09;99811.56;;;8.95;100.00
68193;BME280;55012;47.562;18.414;2022-11-15T11:36:57;99800.47;;;8.97;100.00
68193;BME280;55012;47.562;18.414;2022-11-15T11:42:33;99796.03;;;8.84;100.00
68193;BME280;55012;47.562;18.414;2022-11-15T11:48:03;99780.03;;;8.61;100.00
68193;BME280;55012;47.562;18.414;2022-11-15T11:50:36;99777.91;;;8.32;100.00
68193;BME280;55012;47.562;18.414;2022-11-15T11:53:04;99771.88;;;8.18;100.00
68193;BME280;55012;47.562;18.414;2022-11-15T11:58:19;99789.13;;;8.08;100.00
68193;BME280;55012;47.562;18.414;2022-11-15T12:00:55;99779.16;;;8.09;100.00
68193;BME280;55012;47.562;18.414;2022-11-15T12:05:59;99772.81;;;8.05;100.00
68193;BME280;55012;47.562;18.414;2022-11-15T12:11:17;99759.19;;;8.10;100.00
68193;BME280;55012;47.562;18.414;2022-11-15T12:13:48;99755.09;;;8.12;100.00
68193;BME280;55012;47.562;18.414;2022-11-15T12:16:21;99765.22;;;8.15;100.00
68193;BME280;55012;47.562;18.414;2022-11-15T12:18:51;99748.72;;;8.17;100.00
68193;BME280;55012;47.562;18.414;2022-11-15T12:24:26;99754.13;;;8.17;100.00
68193;BME280;55012;47.562;18.414;2022-11-15T12:27:19;99759.84;;;8.24;100.00
68193;BME280;55012;47.562;18.414;2022-11-15T12:29:49;99753.50;;;8.29;100.00
68193;BME280;55012;47.562;18.414;2022-11-15T12:32:36;99752.53;;;8.33;100.00
68193;BME280;55012;47.562;18.414;2022-11-15T12:35:05;99747.94;;;8.25;100.00
68193;BME280;55012;47.562;18.414;2022-11-15T12:42:44;99732.41;;;8.31;100.00
68193;BME280;55012;47.562;18.414;2022-11-15T12:47:52;99729.25;;;8.29;100.00
68193;BME280;55012;47.562;18.414;2022-11-15T12:50:56;99728.75;;;8.27;100.00
68193;BME280;55012;47.562;18.414;2022-11-15T12:56:17;99726.91;;;8.36;100.00
68193;BME280;55012;47.562;18.414;2022-11-15T12:58:58;99724.78;;;8.33;100.00
68193;BME280;55012;47.562;18.414;2022-11-15T13:06:53;99714.22;;;8.45;100.00
68193;BME280;55012;47.562;18.414;2022-11-15T13:17:56;99689.28;;;8.31;100.00
68193;BME280;55012;47.562;18.414;2022-11-15T13:20:31;99695.94;;;8.33;100.00
68193;BME280;55012;47.562;18.414;2022-11-15T13:30:40;99672.94;;;8.27;100.00
68193;BME280;55012;47.562;18.414;2022-11-15T13:35:58;99671.88;;;8.20;100.00
68193;BME280;55012;47.562;18.414;2022-11-15T13:40:49;99663.94;;;8.14;100.00
68193;BME280;55012;47.562;18.414;2022-11-15T13:43:35;99666.94;;;8.13;100.00
68193;BME280;55012;47.562;18.414;2022-11-15T13:46:06;99663.63;;;8.07;100.00
68193;BME280;55012;47.562;18.414;2022-11-15T13:48:32;99663.63;;;8.07;100.00
68193;BME280;55012;47.562;18.414;2022-11-15T13:51:03;99655.69;;;8.11;100.00
68193;BME280;55012;47.562;18.414;2022-11-15T13:53:32;99655.53;;;8.16;100.00
68193;BME280;55012;47.562;18.414;2022-11-15T13:55:58;99657.28;;;8.12;100.00
68193;BME280;55012;47.562;18.414;2022-11-15T13:58:24;99650.78;;;8.13;100.00
68193;BME280;55012;47.562;18.414;2022-11-15T14:00:59;99646.19;;;8.13;100.00
68193;BME280;55012;47.562;18.414;2022-11-15T14:03:28;99642.53;;;8.09;100.00
68193;BME280;55012;47.562;18.414;2022-11-15T14:06:13;99642.84;;;8.08;100.00
68193;BME280;55012;47.562;18.414;2022-11-15T14:08:40;99642.06;;;8.07;100.00
68193;BME280;55012;47.562;18.414;2022-11-15T14:11:19;99650.31;;;8.11;100.00
68193;BME280;55012;47.562;18.414;2022-11-15T14:16:36;99650.13;;;8.07;100.00
68193;BME280;55012;47.562;18.414;2022-11-15T14:19:04;99649.66;;;8.05;100.00
68193;BME280;55012;47.562;18.414;2022-11-15T14:21:30;99650.94;;;7.99;100.00
68193;BME280;55012;47.562;18.414;2022-11-15T14:24:19;99646.50;;;7.95;100.00
68193;BME280;55012;47.562;18.414;2022-11-15T14:26:45;99646.81;;;7.84;100.00
68193;BME280;55012;47.562;18.414;2022-11-15T14:29:27;99652.50;;;7.74;100.00
68193;BME280;55012;47.562;18.414;2022-11-15T14:32:11;99647.91;;;7.66;100.00
68193;BME280;55012;47.562;18.414;2022-11-15T14:34:37;99643.47;;;7.62;100.00
68193;BME280;55012;47.562;18.414;2022-11-15T14:37:03;99634.88;;;7.51;100.00
68193;BME280;55012;47.562;18.414;2022-11-15T14:39:28;99640.78;;;7.62;100.00
68193;BME280;55012;47.562;18.414;2022-11-15T14:41:54;99640.78;;;7.62;100.00
68193;BME280;55012;47.562;18.414;2022-11-15T14:44:19;99637.13;;;7.57;100.00
68193;BME280;55012;47.562;18.414;2022-11-15T14:46:46;99629.03;;;7.57;100.00
68193;BME280;55012;47.562;18.414;2022-11-15T14:49:13;99627.78;;;7.46;100.00
68193;BME280;55012;47.562;18.414;2022-11-15T14:51:40;99627.44;;;7.39;100.00
68193;BME280;55012;47.562;18.414;2022-11-15T14:54:09;99621.41;;;7.33;100.00
68193;BME280;55012;47.562;18.414;2022-11-15T14:56:35;99615.41;;;7.37;100.00
68193;BME280;55012;47.562;18.414;2022-11-15T14:59:01;99611.94;;;7.45;100.00
68193;BME280;55012;47.562;18.414;2022-11-15T15:01:26;99608.13;;;7.46;100.00
68193;BME280;55012;47.562;18.414;2022-11-15T15:03:53;99603.03;;;7.44;100.00
68193;BME280;55012;47.562;18.414;2022-11-15T15:06:23;99594.03;;;7.40;100.00